sensor_id;sensor_type;location;lat;lon;timestamp;P1;durP1;ratioP1;P2;durP2;ratioP2
50549;SDS011;36505;52.512;13.460;2024-02-28T00:01:21;18.20;;;8.85;;
50549;SDS011;36505;52.512;13.460;2024-02-28T00:03:46;18.48;;;8.13;;
50549;SDS011;36505;52.512;13.460;2024-02-28T00:06:12;18.55;;;8.00;;
50549;SDS011;36505;52.512;13.460;2024-02-28T00:08:37;17.42;;;7.90;;
50549;SDS011;36505;52.512;13.460;2024-02-28T00:11:02;18.33;;;8.30;;
50549;SDS011;36505;52.512;13.460;2024-02-28T00:13:28;16.17;;;7.72;;
50549;SDS011;36505;52.512;13.460;2024-02-28T00:15:53;17.92;;;8.00;;
50549;SDS011;36505;52.512;13.460;2024-02-28T00:18:18;19.08;;;8.23;;
50549;SDS011;36505;52.512;13.460;2024-02-28T00:20:44;17.95;;;8.57;;
50549;SDS011;36505;52.512;13.460;2024-02-28T00:23:10;16.85;;;7.90;;
50549;SDS011;36505;52.512;13.460;2024-02-28T00:25:35;15.85;;;7.57;;
50549;SDS011;36505;52.512;13.460;2024-02-28T00:28:01;17.92;;;7.50;;
50549;SDS011;36505;52.512;13.460;2024-02-28T00:30:26;16.50;;;7.95;;
50549;SDS011;36505;52.512;13.460;2024-02-28T00:32:53;16.25;;;6.75;;
50549;SDS011;36505;52.512;13.460;2024-02-28T00:35:19;17.70;;;8.55;;
50549;SDS011;36505;52.512;13.460;2024-02-28T00:37:44;19.35;;;8.85;;
50549;SDS011;36505;52.512;13.460;2024-02-28T00:40:10;21.58;;;8.32;;
50549;SDS011;36505;52.512;13.460;2024-02-28T00:42:36;17.30;;;7.47;;
50549;SDS011;36505;52.512;13.460;2024-02-28T00:45:01;19.35;;;8.25;;
50549;SDS011;36505;52.512;13.460;2024-02-28T00:47:27;18.60;;;7.47;;
50549;SDS011;36505;52.512;13.460;2024-02-28T00:49:53;20.95;;;8.55;;
50549;SDS011;36505;52.512;13.460;2024-02-28T00:52:18;16.63;;;8.15;;
50549;SDS011;36505;52.512;13.460;2024-02-28T00:54:43;16.30;;;7.50;;
50549;SDS011;36505;52.512;13.460;2024-02-28T00:57:09;14.93;;;6.88;;
50549;SDS011;36505;52.512;13.460;2024-02-28T00:59:34;17.83;;;7.47;;
50549;SDS011;36505;52.512;13.460;2024-02-28T01:01:59;16.55;;;7.38;;
50549;SDS011;36505;52.512;13.460;2024-02-28T01:04:25;18.90;;;7.45;;
50549;SDS011;36505;52.512;13.460;2024-02-28T01:06:50;19.00;;;8.32;;
50549;SDS011;36505;52.512;13.460;2024-02-28T01:09:16;17.50;;;7.40;;
50549;SDS011;36505;52.512;13.460;2024-02-28T01:11:41;15.60;;;7.45;;
50549;SDS011;36505;52.512;13.460;2024-02-28T01:14:06;17.88;;;8.15;;
50549;SDS011;36505;52.512;13.460;2024-02-28T01:16:32;17.50;;;7.95;;
50549;SDS011;36505;52.512;13.460;2024-02-28T01:18:57;17.17;;;8.25;;
50549;SDS011;36505;52.512;13.460;2024-02-28T01:21:23;16.60;;;7.47;;
50549;SDS011;36505;52.512;13.460;2024-02-28T01:23:48;15.02;;;7.15;;
50549;SDS011;36505;52.512;13.460;2024-02-28T01:26:13;17.10;;;7.57;;
50549;SDS011;36505;52.512;13.460;2024-02-28T01:28:39;18.20;;;8.25;;
50549;SDS011;36505;52.512;13.460;2024-02-28T01:31:05;14.07;;;7.03;;
50549;SDS011;36505;52.512;13.460;2024-02-28T01:33:31;17.88;;;6.82;;
50549;SDS011;36505;52.512;13.460;2024-02-28T01:35:57;15.32;;;7.47;;
50549;SDS011;36505;52.512;13.460;2024-02-28T01:38:23;15.05;;;7.25;;
50549;SDS011;36505;52.512;13.460;2024-02-28T01:40:49;14.70;;;7.20;;
50549;SDS011;36505;52.512;13.460;2024-02-28T01:43:14;19.67;;;7.80;;
50549;SDS011;36505;52.512;13.460;2024-02-28T01:45:39;15.23;;;7.53;;
50549;SDS011;36505;52.512;13.460;2024-02-28T01:48:06;16.10;;;6.80;;
50549;SDS011;36505;52.512;13.460;2024-02-28T01:50:34;14.98;;;6.85;;
50549;SDS011;36505;52.512;13.460;2024-02-28T01:52:59;15.23;;;7.05;;
50549;SDS011;36505;52.512;13.460;2024-02-28T01:55:25;18.25;;;7.80;;
50549;SDS011;36505;52.512;13.460;2024-02-28T01:57:51;19.50;;;8.27;;
50549;SDS011;36505;52.512;13.460;2024-02-28T02:00:17;15.18;;;7.57;;
50549;SDS011;36505;52.512;13.460;2024-02-28T02:02:44;16.23;;;7.35;;
50549;SDS011;36505;52.512;13.460;2024-02-28T02:05:09;16.65;;;7.00;;
50549;SDS011;36505;52.512;13.460;2024-02-28T02:07:35;17.35;;;7.82;;
50549;SDS011;36505;52.512;13.460;2024-02-28T02:10:01;14.05;;;6.75;;
50549;SDS011;36505;52.512;13.460;2024-02-28T02:12:27;15.57;;;7.32;;
50549;SDS011;36505;52.512;13.460;2024-02-28T02:14:52;17.10;;;7.18;;
50549;SDS011;36505;52.512;13.460;2024-02-28T02:17:18;15.35;;;7.07;;
50549;SDS011;36505;52.512;13.460;2024-02-28T02:19:43;14.55;;;6.65;;
50549;SDS011;36505;52.512;13.460;2024-02-28T02:22:09;14.32;;;6.35;;
50549;SDS011;36505;52.512;13.460;2024-02-28T02:24:38;13.38;;;6.22;;
50549;SDS011;36505;52.512;13.460;2024-02-28T02:27:04;11.35;;;5.78;;
50549;SDS011;36505;52.512;13.460;2024-02-28T02:29:30;15.48;;;6.35;;
50549;SDS011;36505;52.512;13.460;2024-02-28T02:31:55;12.88;;;6.15;;
50549;SDS011;36505;52.512;13.460;2024-02-28T02:34:21;15.52;;;6.38;;
50549;SDS011;36505;52.512;13.460;2024-02-28T02:36:46;11.60;;;6.18;;
50549;SDS011;36505;52.512;13.460;2024-02-28T02:39:12;10.40;;;5.10;;
50549;SDS011;36505;52.512;13.460;2024-02-28T02:41:37;10.75;;;6.13;;
50549;SDS011;36505;52.512;13.460;2024-02-28T02:44:03;15.35;;;6.68;;
50549;SDS011;36505;52.512;13.460;2024-02-28T02:46:28;13.32;;;5.90;;
50549;SDS011;36505;52.512;13.460;2024-02-28T02:48:54;13.32;;;5.22;;
50549;SDS011;36505;52.512;13.460;2024-02-28T02:51:19;9.43;;;4.90;;
50549;SDS011;36505;52.512;13.460;2024-02-28T02:53:45;14.25;;;5.70;;
50549;SDS011;36505;52.512;13.460;2024-02-28T02:56:10;11.52;;;5.68;;
50549;SDS011;36505;52.512;13.460;2024-02-28T02:58:36;12.45;;;5.57;;
50549;SDS011;36505;52.512;13.460;2024-02-28T03:01:01;12.45;;;5.07;;
50549;SDS011;36505;52.512;13.460;2024-02-28T03:03:27;11.65;;;5.85;;
50549;SDS011;36505;52.512;13.460;2024-02-28T03:05:52;9.77;;;4.93;;
50549;SDS011;36505;52.512;13.460;2024-02-28T03:08:18;9.02;;;4.50;;
50549;SDS011;36505;52.512;13.460;2024-02-28T03:10:43;10.20;;;5.05;;
50549;SDS011;36505;52.512;13.460;2024-02-28T03:13:08;10.80;;;4.78;;
50549;SDS011;36505;52.512;13.460;2024-02-28T03:15:34;9.68;;;5.05;;
50549;SDS011;36505;52.512;13.460;2024-02-28T03:17:59;10.35;;;5.22;;
50549;SDS011;36505;52.512;13.460;2024-02-28T03:20:25;12.32;;;5.85;;
50549;SDS011;36505;52.512;13.460;2024-02-28T03:22:51;10.57;;;5.30;;
50549;SDS011;36505;52.512;13.460;2024-02-28T03:25:16;10.63;;;5.13;;
50549;SDS011;36505;52.512;13.460;2024-02-28T03:27:42;10.43;;;5.32;;
50549;SDS011;36505;52.512;13.460;2024-02-28T03:30:08;10.38;;;4.95;;
50549;SDS011;36505;52.512;13.460;2024-02-28T03:32:33;8.52;;;4.57;;
50549;SDS011;36505;52.512;13.460;2024-02-28T03:34:59;11.93;;;5.13;;
50549;SDS011;36505;52.512;13.460;2024-02-28T03:37:24;7.45;;;4.43;;
50549;SDS011;36505;52.512;13.460;2024-02-28T03:39:50;10.50;;;4.97;;
50549;SDS011;36505;52.512;13.460;2024-02-28T03:42:16;10.20;;;4.13;;
50549;SDS011;36505;52.512;13.460;2024-02-28T03:44:41;10.57;;;4.72;;
50549;SDS011;36505;52.512;13.460;2024-02-28T03:47:07;8.68;;;4.63;;
50549;SDS011;36505;52.512;13.460;2024-02-28T03:49:32;7.93;;;3.90;;
50549;SDS011;36505;52.512;13.460;2024-02-28T03:51:57;8.35;;;4.68;;
50549;SDS011;36505;52.512;13.460;2024-02-28T03:54:23;9.98;;;4.97;;
50549;SDS011;36505;52.512;13.460;2024-02-28T03:56:48;10.48;;;5.22;;
50549;SDS011;36505;52.512;13.460;2024-02-28T03:59:14;7.45;;;4.35;;
50549;SDS011;36505;52.512;13.460;2024-02-28T04:01:39;7.38;;;4.15;;
50549;SDS011;36505;52.512;13.460;2024-02-28T04:04:04;8.45;;;4.47;;
50549;SDS011;36505;52.512;13.460;2024-02-28T04:06:30;9.20;;;4.43;;
50549;SDS011;36505;52.512;13.460;2024-02-28T04:08:55;6.95;;;3.90;;
50549;SDS011;36505;52.512;13.460;2024-02-28T04:11:21;8.10;;;3.83;;
50549;SDS011;36505;52.512;13.460;2024-02-28T04:13:46;8.60;;;3.67;;
50549;SDS011;36505;52.512;13.460;2024-02-28T04:16:11;9.02;;;3.90;;
50549;SDS011;36505;52.512;13.460;2024-02-28T04:18:37;9.45;;;4.22;;
50549;SDS011;36505;52.512;13.460;2024-02-28T04:21:02;8.73;;;3.72;;
50549;SDS011;36505;52.512;13.460;2024-02-28T04:23:28;7.28;;;3.50;;
50549;SDS011;36505;52.512;13.460;2024-02-28T04:25:53;7.72;;;3.70;;
50549;SDS011;36505;52.512;13.460;2024-02-28T04:28:19;7.25;;;3.42;;
50549;SDS011;36505;52.512;13.460;2024-02-28T04:30:44;7.05;;;3.47;;
50549;SDS011;36505;52.512;13.460;2024-02-28T04:33:09;8.38;;;3.83;;
50549;SDS011;36505;52.512;13.460;2024-02-28T04:35:35;6.65;;;3.28;;
50549;SDS011;36505;52.512;13.460;2024-02-28T04:38:00;6.00;;;3.10;;
50549;SDS011;36505;52.512;13.460;2024-02-28T04:40:26;7.40;;;3.78;;
50549;SDS011;36505;52.512;13.460;2024-02-28T04:42:51;4.95;;;2.72;;
50549;SDS011;36505;52.512;13.460;2024-02-28T04:45:16;5.97;;;3.08;;
50549;SDS011;36505;52.512;13.460;2024-02-28T04:47:42;6.57;;;3.05;;
50549;SDS011;36505;52.512;13.460;2024-02-28T04:50:09;5.70;;;3.00;;
50549;SDS011;36505;52.512;13.460;2024-02-28T04:52:34;6.97;;;3.17;;
50549;SDS011;36505;52.512;13.460;2024-02-28T04:55:00;7.10;;;2.92;;
50549;SDS011;36505;52.512;13.460;2024-02-28T04:57:25;4.50;;;2.47;;
50549;SDS011;36505;52.512;13.460;2024-02-28T04:59:50;6.00;;;3.00;;
50549;SDS011;36505;52.512;13.460;2024-02-28T05:02:16;6.15;;;2.85;;
50549;SDS011;36505;52.512;13.460;2024-02-28T05:04:42;5.97;;;3.08;;
50549;SDS011;36505;52.512;13.460;2024-02-28T05:07:07;6.30;;;3.25;;
50549;SDS011;36505;52.512;13.460;2024-02-28T05:09:33;5.43;;;2.70;;
50549;SDS011;36505;52.512;13.460;2024-02-28T05:11:59;9.68;;;4.00;;
50549;SDS011;36505;52.512;13.460;2024-02-28T05:14:25;8.07;;;2.97;;
50549;SDS011;36505;52.512;13.460;2024-02-28T05:16:50;6.95;;;2.85;;
50549;SDS011;36505;52.512;13.460;2024-02-28T05:19:16;6.10;;;3.08;;
50549;SDS011;36505;52.512;13.460;2024-02-28T05:21:44;4.78;;;2.95;;
50549;SDS011;36505;52.512;13.460;2024-02-28T05:24:10;6.50;;;2.97;;
50549;SDS011;36505;52.512;13.460;2024-02-28T05:26:36;5.80;;;2.75;;
50549;SDS011;36505;52.512;13.460;2024-02-28T05:29:03;6.97;;;3.50;;
50549;SDS011;36505;52.512;13.460;2024-02-28T05:31:30;10.02;;;3.45;;
50549;SDS011;36505;52.512;13.460;2024-02-28T05:33:57;6.40;;;3.85;;
50549;SDS011;36505;52.512;13.460;2024-02-28T05:36:23;7.40;;;3.42;;
50549;SDS011;36505;52.512;13.460;2024-02-28T05:38:50;7.93;;;3.20;;
50549;SDS011;36505;52.512;13.460;2024-02-28T05:41:16;6.97;;;3.60;;
50549;SDS011;36505;52.512;13.460;2024-02-28T05:43:43;12.07;;;4.07;;
50549;SDS011;36505;52.512;13.460;2024-02-28T05:46:08;6.75;;;3.58;;
50549;SDS011;36505;52.512;13.460;2024-02-28T05:48:34;8.25;;;4.60;;
50549;SDS011;36505;52.512;13.460;2024-02-28T05:51:02;6.35;;;3.38;;
50549;SDS011;36505;52.512;13.460;2024-02-28T05:53:28;6.28;;;3.65;;
50549;SDS011;36505;52.512;13.460;2024-02-28T05:55:57;7.47;;;3.47;;
50549;SDS011;36505;52.512;13.460;2024-02-28T05:58:23;7.65;;;3.47;;
50549;SDS011;36505;52.512;13.460;2024-02-28T06:00:50;6.78;;;3.35;;
50549;SDS011;36505;52.512;13.460;2024-02-28T06:03:15;9.15;;;3.65;;
50549;SDS011;36505;52.512;13.460;2024-02-28T06:05:41;7.05;;;3.70;;
50549;SDS011;36505;52.512;13.460;2024-02-28T06:08:06;6.68;;;3.03;;
50549;SDS011;36505;52.512;13.460;2024-02-28T06:10:32;10.07;;;4.72;;
50549;SDS011;36505;52.512;13.460;2024-02-28T06:12:57;6.53;;;3.28;;
50549;SDS011;36505;52.512;13.460;2024-02-28T06:15:23;8.15;;;4.00;;
50549;SDS011;36505;52.512;13.460;2024-02-28T06:17:49;10.02;;;3.55;;
50549;SDS011;36505;52.512;13.460;2024-02-28T06:20:14;11.85;;;4.30;;
50549;SDS011;36505;52.512;13.460;2024-02-28T06:22:39;7.43;;;3.75;;
50549;SDS011;36505;52.512;13.460;2024-02-28T06:25:05;8.55;;;3.67;;
50549;SDS011;36505;52.512;13.460;2024-02-28T06:27:38;8.80;;;3.35;;
50549;SDS011;36505;52.512;13.460;2024-02-28T06:30:04;7.55;;;3.15;;
50549;SDS011;36505;52.512;13.460;2024-02-28T06:32:30;6.85;;;3.40;;
50549;SDS011;36505;52.512;13.460;2024-02-28T06:34:55;7.63;;;4.25;;
50549;SDS011;36505;52.512;13.460;2024-02-28T06:37:21;9.63;;;3.65;;
50549;SDS011;36505;52.512;13.460;2024-02-28T06:39:46;9.40;;;4.10;;
50549;SDS011;36505;52.512;13.460;2024-02-28T06:42:11;6.93;;;3.83;;
50549;SDS011;36505;52.512;13.460;2024-02-28T06:44:37;10.18;;;4.28;;
50549;SDS011;36505;52.512;13.460;2024-02-28T06:47:02;7.90;;;3.47;;
50549;SDS011;36505;52.512;13.460;2024-02-28T06:49:28;8.13;;;4.68;;
50549;SDS011;36505;52.512;13.460;2024-02-28T06:51:53;5.57;;;3.30;;
50549;SDS011;36505;52.512;13.460;2024-02-28T06:54:20;7.80;;;3.70;;
50549;SDS011;36505;52.512;13.460;2024-02-28T06:56:46;6.65;;;4.18;;
50549;SDS011;36505;52.512;13.460;2024-02-28T06:59:11;8.65;;;3.95;;
50549;SDS011;36505;52.512;13.460;2024-02-28T07:01:37;7.30;;;3.67;;
50549;SDS011;36505;52.512;13.460;2024-02-28T07:04:02;9.23;;;5.00;;
50549;SDS011;36505;52.512;13.460;2024-02-28T07:06:28;7.43;;;3.83;;
50549;SDS011;36505;52.512;13.460;2024-02-28T07:08:53;8.52;;;4.53;;
50549;SDS011;36505;52.512;13.460;2024-02-28T07:11:18;8.68;;;3.92;;
50549;SDS011;36505;52.512;13.460;2024-02-28T07:13:44;9.95;;;4.65;;
50549;SDS011;36505;52.512;13.460;2024-02-28T07:16:09;9.27;;;5.30;;
50549;SDS011;36505;52.512;13.460;2024-02-28T07:18:34;12.88;;;5.97;;
50549;SDS011;36505;52.512;13.460;2024-02-28T07:21:00;9.02;;;4.55;;
50549;SDS011;36505;52.512;13.460;2024-02-28T07:23:26;9.77;;;5.15;;
50549;SDS011;36505;52.512;13.460;2024-02-28T07:25:51;11.30;;;5.47;;
50549;SDS011;36505;52.512;13.460;2024-02-28T07:28:17;10.45;;;5.20;;
50549;SDS011;36505;52.512;13.460;2024-02-28T07:30:42;9.30;;;5.35;;
50549;SDS011;36505;52.512;13.460;2024-02-28T07:33:09;10.32;;;5.22;;
50549;SDS011;36505;52.512;13.460;2024-02-28T07:35:48;9.77;;;4.82;;
50549;SDS011;36505;52.512;13.460;2024-02-28T07:38:15;12.27;;;5.53;;
50549;SDS011;36505;52.512;13.460;2024-02-28T07:40:42;12.52;;;5.45;;
50549;SDS011;36505;52.512;13.460;2024-02-28T07:43:08;11.27;;;5.38;;
50549;SDS011;36505;52.512;13.460;2024-02-28T07:45:34;18.27;;;6.68;;
50549;SDS011;36505;52.512;13.460;2024-02-28T07:47:59;12.02;;;5.60;;
50549;SDS011;36505;52.512;13.460;2024-02-28T07:50:24;9.85;;;4.82;;
50549;SDS011;36505;52.512;13.460;2024-02-28T07:52:50;12.13;;;5.93;;
50549;SDS011;36505;52.512;13.460;2024-02-28T07:55:18;11.82;;;5.93;;
50549;SDS011;36505;52.512;13.460;2024-02-28T07:57:44;10.65;;;6.10;;
50549;SDS011;36505;52.512;13.460;2024-02-28T08:00:12;13.32;;;6.65;;
50549;SDS011;36505;52.512;13.460;2024-02-28T08:02:38;11.95;;;5.72;;
50549;SDS011;36505;52.512;13.460;2024-02-28T08:05:04;11.00;;;6.22;;
50549;SDS011;36505;52.512;13.460;2024-02-28T08:07:32;12.02;;;6.40;;
50549;SDS011;36505;52.512;13.460;2024-02-28T08:09:57;11.60;;;6.30;;
50549;SDS011;36505;52.512;13.460;2024-02-28T08:12:23;12.93;;;6.35;;
50549;SDS011;36505;52.512;13.460;2024-02-28T08:14:48;10.80;;;5.80;;
50549;SDS011;36505;52.512;13.460;2024-02-28T08:17:14;11.85;;;6.18;;
50549;SDS011;36505;52.512;13.460;2024-02-28T08:19:40;11.05;;;6.10;;
50549;SDS011;36505;52.512;13.460;2024-02-28T08:22:06;9.98;;;5.32;;
50549;SDS011;36505;52.512;13.460;2024-02-28T08:24:32;9.95;;;5.57;;
50549;SDS011;36505;52.512;13.460;2024-02-28T08:26:58;9.98;;;5.63;;
50549;SDS011;36505;52.512;13.460;2024-02-28T08:29:23;11.25;;;6.25;;
50549;SDS011;36505;52.512;13.460;2024-02-28T08:31:49;11.90;;;5.72;;
50549;SDS011;36505;52.512;13.460;2024-02-28T08:34:14;11.02;;;5.53;;
50549;SDS011;36505;52.512;13.460;2024-02-28T08:36:39;13.90;;;6.25;;
50549;SDS011;36505;52.512;13.460;2024-02-28T08:39:05;12.35;;;6.07;;
50549;SDS011;36505;52.512;13.460;2024-02-28T08:41:33;15.23;;;6.97;;
50549;SDS011;36505;52.512;13.460;2024-02-28T08:43:59;13.60;;;6.10;;
50549;SDS011;36505;52.512;13.460;2024-02-28T08:46:24;12.48;;;5.70;;
50549;SDS011;36505;52.512;13.460;2024-02-28T08:48:50;11.88;;;6.25;;
50549;SDS011;36505;52.512;13.460;2024-02-28T08:51:15;11.57;;;6.38;;
50549;SDS011;36505;52.512;13.460;2024-02-28T08:53:40;10.18;;;6.10;;
50549;SDS011;36505;52.512;13.460;2024-02-28T08:56:06;11.50;;;6.72;;
50549;SDS011;36505;52.512;13.460;2024-02-28T08:58:31;10.38;;;5.65;;
50549;SDS011;36505;52.512;13.460;2024-02-28T09:00:57;11.82;;;6.15;;
50549;SDS011;36505;52.512;13.460;2024-02-28T09:03:22;9.65;;;5.75;;
50549;SDS011;36505;52.512;13.460;2024-02-28T09:05:47;9.45;;;6.07;;
50549;SDS011;36505;52.512;13.460;2024-02-28T09:08:13;15.05;;;6.25;;
50549;SDS011;36505;52.512;13.460;2024-02-28T09:10:38;10.55;;;5.95;;
50549;SDS011;36505;52.512;13.460;2024-02-28T09:13:04;11.38;;;5.95;;
50549;SDS011;36505;52.512;13.460;2024-02-28T09:15:31;10.10;;;5.68;;
50549;SDS011;36505;52.512;13.460;2024-02-28T09:17:57;11.07;;;6.47;;
50549;SDS011;36505;52.512;13.460;2024-02-28T09:20:22;13.18;;;6.82;;
50549;SDS011;36505;52.512;13.460;2024-02-28T09:22:47;12.73;;;6.63;;
50549;SDS011;36505;52.512;13.460;2024-02-28T09:25:13;11.65;;;6.30;;
50549;SDS011;36505;52.512;13.460;2024-02-28T09:27:40;12.45;;;6.63;;
50549;SDS011;36505;52.512;13.460;2024-02-28T09:30:06;15.95;;;7.35;;
50549;SDS011;36505;52.512;13.460;2024-02-28T09:32:32;14.43;;;7.47;;
50549;SDS011;36505;52.512;13.460;2024-02-28T09:34:57;12.30;;;7.35;;
50549;SDS011;36505;52.512;13.460;2024-02-28T09:37:23;16.52;;;8.52;;
50549;SDS011;36505;52.512;13.460;2024-02-28T09:39:50;16.17;;;8.18;;
50549;SDS011;36505;52.512;13.460;2024-02-28T09:42:15;19.52;;;8.85;;
50549;SDS011;36505;52.512;13.460;2024-02-28T09:44:41;16.73;;;8.82;;
50549;SDS011;36505;52.512;13.460;2024-02-28T09:47:08;16.73;;;8.57;;
50549;SDS011;36505;52.512;13.460;2024-02-28T09:49:33;18.85;;;8.02;;
50549;SDS011;36505;52.512;13.460;2024-02-28T09:52:01;14.93;;;8.13;;
50549;SDS011;36505;52.512;13.460;2024-02-28T09:54:28;18.42;;;9.10;;
50549;SDS011;36505;52.512;13.460;2024-02-28T09:56:54;18.73;;;9.80;;
50549;SDS011;36505;52.512;13.460;2024-02-28T09:59:20;17.67;;;9.60;;
50549;SDS011;36505;52.512;13.460;2024-02-28T10:01:51;20.33;;;9.75;;
50549;SDS011;36505;52.512;13.460;2024-02-28T10:06:46;16.50;;;9.23;;
50549;SDS011;36505;52.512;13.460;2024-02-28T10:09:14;20.85;;;10.30;;
50549;SDS011;36505;52.512;13.460;2024-02-28T10:11:41;20.05;;;10.57;;
50549;SDS011;36505;52.512;13.460;2024-02-28T10:14:08;18.40;;;10.02;;
50549;SDS011;36505;52.512;13.460;2024-02-28T10:16:33;20.55;;;9.57;;
50549;SDS011;36505;52.512;13.460;2024-02-28T10:18:59;21.42;;;10.43;;
50549;SDS011;36505;52.512;13.460;2024-02-28T10:21:25;20.77;;;10.23;;
50549;SDS011;36505;52.512;13.460;2024-02-28T10:23:51;18.70;;;9.98;;
50549;SDS011;36505;52.512;13.460;2024-02-28T10:26:16;22.33;;;10.25;;
50549;SDS011;36505;52.512;13.460;2024-02-28T10:28:42;21.27;;;10.27;;
50549;SDS011;36505;52.512;13.460;2024-02-28T10:31:09;19.92;;;8.27;;
50549;SDS011;36505;52.512;13.460;2024-02-28T10:33:35;18.33;;;9.70;;
50549;SDS011;36505;52.512;13.460;2024-02-28T10:36:02;19.90;;;10.38;;
50549;SDS011;36505;52.512;13.460;2024-02-28T10:38:30;16.15;;;7.93;;
50549;SDS011;36505;52.512;13.460;2024-02-28T10:40:58;19.33;;;8.73;;
50549;SDS011;36505;52.512;13.460;2024-02-28T10:43:30;23.13;;;9.60;;
50549;SDS011;36505;52.512;13.460;2024-02-28T10:45:59;15.45;;;8.32;;
50549;SDS011;36505;52.512;13.460;2024-02-28T10:48:25;17.35;;;8.95;;
50549;SDS011;36505;52.512;13.460;2024-02-28T10:50:52;19.00;;;8.65;;
50549;SDS011;36505;52.512;13.460;2024-02-28T10:53:22;19.15;;;8.85;;
50549;SDS011;36505;52.512;13.460;2024-02-28T10:55:54;17.02;;;8.77;;
50549;SDS011;36505;52.512;13.460;2024-02-28T10:58:27;17.58;;;9.35;;
50549;SDS011;36505;52.512;13.460;2024-02-28T11:00:59;19.55;;;9.13;;
50549;SDS011;36505;52.512;13.460;2024-02-28T11:03:25;20.30;;;9.60;;
50549;SDS011;36505;52.512;13.460;2024-02-28T11:05:51;18.52;;;9.07;;
50549;SDS011;36505;52.512;13.460;2024-02-28T11:08:23;21.15;;;10.18;;
50549;SDS011;36505;52.512;13.460;2024-02-28T11:10:56;16.52;;;9.35;;
50549;SDS011;36505;52.512;13.460;2024-02-28T11:13:23;21.45;;;8.10;;
50549;SDS011;36505;52.512;13.460;2024-02-28T11:15:49;17.27;;;8.90;;
50549;SDS011;36505;52.512;13.460;2024-02-28T11:18:15;14.32;;;7.95;;
50549;SDS011;36505;52.512;13.460;2024-02-28T11:20:40;18.00;;;8.65;;
50549;SDS011;36505;52.512;13.460;2024-02-28T11:23:07;18.35;;;9.05;;
50549;SDS011;36505;52.512;13.460;2024-02-28T11:25:34;15.80;;;8.27;;
50549;SDS011;36505;52.512;13.460;2024-02-28T11:28:00;20.38;;;8.65;;
50549;SDS011;36505;52.512;13.460;2024-02-28T11:30:25;17.35;;;9.25;;
50549;SDS011;36505;52.512;13.460;2024-02-28T11:32:55;15.75;;;9.55;;
50549;SDS011;36505;52.512;13.460;2024-02-28T11:35:23;18.60;;;9.75;;
50549;SDS011;36505;52.512;13.460;2024-02-28T11:37:49;21.63;;;9.80;;
50549;SDS011;36505;52.512;13.460;2024-02-28T11:40:14;18.50;;;9.48;;
50549;SDS011;36505;52.512;13.460;2024-02-28T11:42:40;20.50;;;9.43;;
50549;SDS011;36505;52.512;13.460;2024-02-28T11:45:05;17.80;;;9.20;;
50549;SDS011;36505;52.512;13.460;2024-02-28T11:47:34;17.95;;;8.57;;
50549;SDS011;36505;52.512;13.460;2024-02-28T11:50:03;19.23;;;8.30;;
50549;SDS011;36505;52.512;13.460;2024-02-28T11:52:33;21.95;;;9.68;;
50549;SDS011;36505;52.512;13.460;2024-02-28T11:54:58;18.50;;;9.30;;
50549;SDS011;36505;52.512;13.460;2024-02-28T11:57:25;18.38;;;9.07;;
50549;SDS011;36505;52.512;13.460;2024-02-28T11:59:51;15.77;;;9.45;;
50549;SDS011;36505;52.512;13.460;2024-02-28T12:02:17;18.92;;;9.13;;
50549;SDS011;36505;52.512;13.460;2024-02-28T12:04:42;20.88;;;9.82;;
50549;SDS011;36505;52.512;13.460;2024-02-28T12:07:09;15.60;;;9.05;;
50549;SDS011;36505;52.512;13.460;2024-02-28T12:09:34;18.33;;;8.57;;
50549;SDS011;36505;52.512;13.460;2024-02-28T12:12:01;16.67;;;8.70;;
50549;SDS011;36505;52.512;13.460;2024-02-28T12:14:27;19.25;;;8.80;;
50549;SDS011;36505;52.512;13.460;2024-02-28T12:16:52;17.42;;;9.10;;
50549;SDS011;36505;52.512;13.460;2024-02-28T12:19:18;14.70;;;7.78;;
50549;SDS011;36505;52.512;13.460;2024-02-28T12:21:45;14.77;;;7.80;;
50549;SDS011;36505;52.512;13.460;2024-02-28T12:24:11;17.15;;;9.43;;
50549;SDS011;36505;52.512;13.460;2024-02-28T12:26:37;14.27;;;7.40;;
50549;SDS011;36505;52.512;13.460;2024-02-28T12:29:03;15.13;;;8.20;;
50549;SDS011;36505;52.512;13.460;2024-02-28T12:31:31;15.40;;;8.23;;
50549;SDS011;36505;52.512;13.460;2024-02-28T12:33:56;16.10;;;8.05;;
50549;SDS011;36505;52.512;13.460;2024-02-28T12:36:22;15.15;;;7.85;;
50549;SDS011;36505;52.512;13.460;2024-02-28T12:38:47;15.27;;;8.18;;
50549;SDS011;36505;52.512;13.460;2024-02-28T12:41:13;12.88;;;7.28;;
50549;SDS011;36505;52.512;13.460;2024-02-28T12:43:39;15.25;;;7.95;;
50549;SDS011;36505;52.512;13.460;2024-02-28T12:46:05;13.55;;;7.88;;
50549;SDS011;36505;52.512;13.460;2024-02-28T12:48:31;15.00;;;7.75;;
50549;SDS011;36505;52.512;13.460;2024-02-28T12:51:01;13.75;;;7.70;;
50549;SDS011;36505;52.512;13.460;2024-02-28T12:53:27;15.45;;;8.73;;
50549;SDS011;36505;52.512;13.460;2024-02-28T12:55:52;14.40;;;7.35;;
50549;SDS011;36505;52.512;13.460;2024-02-28T12:58:18;12.27;;;6.88;;
50549;SDS011;36505;52.512;13.460;2024-02-28T13:00:43;14.38;;;7.40;;
50549;SDS011;36505;52.512;13.460;2024-02-28T13:03:08;13.40;;;6.85;;
50549;SDS011;36505;52.512;13.460;2024-02-28T13:05:34;12.02;;;6.55;;
50549;SDS011;36505;52.512;13.460;2024-02-28T13:07:59;12.00;;;6.68;;
50549;SDS011;36505;52.512;13.460;2024-02-28T13:10:25;13.90;;;6.88;;
50549;SDS011;36505;52.512;13.460;2024-02-28T13:12:50;13.07;;;7.10;;
50549;SDS011;36505;52.512;13.460;2024-02-28T13:15:16;10.98;;;6.40;;
50549;SDS011;36505;52.512;13.460;2024-02-28T13:17:41;11.63;;;6.72;;
50549;SDS011;36505;52.512;13.460;2024-02-28T13:20:07;12.15;;;6.30;;
50549;SDS011;36505;52.512;13.460;2024-02-28T13:22:33;10.18;;;6.00;;
50549;SDS011;36505;52.512;13.460;2024-02-28T13:24:59;11.30;;;6.45;;
50549;SDS011;36505;52.512;13.460;2024-02-28T13:27:28;12.60;;;7.22;;
50549;SDS011;36505;52.512;13.460;2024-02-28T13:30:28;13.77;;;6.85;;
50549;SDS011;36505;52.512;13.460;2024-02-28T13:33:17;11.95;;;6.13;;
50549;SDS011;36505;52.512;13.460;2024-02-28T13:35:58;12.95;;;6.72;;
50549;SDS011;36505;52.512;13.460;2024-02-28T13:38:24;16.88;;;7.82;;
50549;SDS011;36505;52.512;13.460;2024-02-28T13:40:49;13.10;;;7.38;;
50549;SDS011;36505;52.512;13.460;2024-02-28T13:43:15;12.30;;;6.95;;
50549;SDS011;36505;52.512;13.460;2024-02-28T13:45:45;11.95;;;7.18;;
50549;SDS011;36505;52.512;13.460;2024-02-28T13:48:16;14.80;;;7.57;;
50549;SDS011;36505;52.512;13.460;2024-02-28T13:50:44;13.60;;;7.63;;
50549;SDS011;36505;52.512;13.460;2024-02-28T13:53:10;11.98;;;7.47;;
50549;SDS011;36505;52.512;13.460;2024-02-28T13:55:37;14.90;;;7.70;;
50549;SDS011;36505;52.512;13.460;2024-02-28T13:58:03;13.85;;;8.18;;
50549;SDS011;36505;52.512;13.460;2024-02-28T14:00:33;17.75;;;8.60;;
50549;SDS011;36505;52.512;13.460;2024-02-28T14:03:00;12.23;;;7.22;;
50549;SDS011;36505;52.512;13.460;2024-02-28T14:05:26;18.23;;;9.13;;
50549;SDS011;36505;52.512;13.460;2024-02-28T14:07:55;13.43;;;7.07;;
50549;SDS011;36505;52.512;13.460;2024-02-28T14:10:22;12.95;;;7.28;;
50549;SDS011;36505;52.512;13.460;2024-02-28T14:12:48;14.43;;;8.25;;
50549;SDS011;36505;52.512;13.460;2024-02-28T14:15:14;16.35;;;8.23;;
50549;SDS011;36505;52.512;13.460;2024-02-28T14:17:40;14.05;;;8.45;;
50549;SDS011;36505;52.512;13.460;2024-02-28T14:20:05;14.13;;;7.68;;
50549;SDS011;36505;52.512;13.460;2024-02-28T14:22:31;15.38;;;7.97;;